Time;durP1;ratioP1;P1;durP2;ratioP2;P2;SDS_P1;SDS_P2;PMS_P1;PMS_P2;Temp;Humidity;BMP_temperature;BMP_pressure;BME280_temperature;BME280_humidity;BME280_pressure;Samples;Min_cycle;Max_cycle;Signal;HPM_P1;HPM_P2
2022/11/13 12:39:36;;;;;;;6.07;5.47;;;15.50;99.90;;;;;;5082863;28;21199;-81
2022/11/13 12:42:20;;;;;;;5.93;5.43;;;15.50;99.90;;;;;;5062666;28;20180;-81
2022/11/13 12:45:09;;;;;;;6.53;5.43;;;15.30;99.90;;;;;;5070224;28;20165;-81
2022/11/13 12:47:35;;;;;;;5.47;4.97;;;15.50;99.90;;;;;;5069402;28;20191;-81
2022/11/13 12:50:20;;;;;;;5.93;5.40;;;15.70;99.90;;;;;;5070850;28;20275;-81
2022/11/13 12:53:10;;;;;;;5.73;5.23;;;15.90;99.90;;;;;;5064527;23;20294;-82
2022/11/13 12:55:38;;;;;;;5.20;4.70;;;15.90;99.90;;;;;;5010583;28;20516;-82
2022/11/13 12:58:10;;;;;;;6.37;5.13;;;16.00;99.90;;;;;;5010403;28;20281;-83
2022/11/13 13:00:50;;;;;;;5.93;5.33;;;16.20;99.90;;;;;;5010305;28;20171;-81
2022/11/13 13:03:25;;;;;;;6.63;5.87;;;16.40;99.90;;;;;;4972910;28;20198;-82
2022/11/13 13:06:04;;;;;;;4.80;4.40;;;16.50;99.90;;;;;;4973944;28;20673;-81
2022/11/13 13:08:49;;;;;;;5.37;4.87;;;16.30;99.90;;;;;;4972379;28;20195;-83
2022/11/13 13:11:36;;;;;;;5.63;4.90;;;16.40;99.90;;;;;;4988000;28;20199;-82
2022/11/13 13:14:23;;;;;;;6.33;5.60;;;16.30;99.90;;;;;;4972286;28;20700;-82
2022/11/13 13:16:48;;;;;;;6.13;5.23;;;16.50;99.90;;;;;;4972458;28;20176;-82
2022/11/13 13:19:27;;;;;;;5.60;5.00;;;16.40;99.90;;;;;;4972989;28;20207;-82
2022/11/13 13:21:54;;;;;;;5.50;5.00;;;16.20;99.90;;;;;;4989910;28;20183;-82
2022/11/13 13:24:33;;;;;;;5.40;4.90;;;16.00;99.90;;;;;;4990440;28;20227;-82
2022/11/13 13:26:59;;;;;;;6.53;5.90;;;15.90;99.90;;;;;;4990856;28;20175;-82
2022/11/13 13:29:26;;;;;;;6.90;6.23;;;15.70;99.90;;;;;;4990854;28;20169;-82
2022/11/13 13:32:02;;;;;;;6.40;5.80;;;15.50;99.90;;;;;;4973291;28;20211;-82
2022/11/13 13:34:45;;;;;;;6.57;5.70;;;15.30;99.90;;;;;;4973067;28;20646;-82
2022/11/13 13:37:20;;;;;;;6.93;5.67;;;14.90;99.90;;;;;;4990390;28;20194;-82
2022/11/13 13:39:52;;;;;;;6.90;6.20;;;14.70;99.90;;;;;;4990432;28;20252;-82
2022/11/13 13:42:26;;;;;;;6.80;6.17;;;14.50;99.90;;;;;;4990070;28;20219;-82
2022/11/13 13:44:57;;;;;;;7.43;6.50;;;14.20;99.90;;;;;;4990270;28;20259;-82
2022/11/13 13:47:49;;;;;;;7.10;6.40;;;14.00;99.90;;;;;;4990025;28;20176;-82
2022/11/13 13:50:24;;;;;;;7.10;6.40;;;13.70;99.90;;;;;;4978043;28;20184;-82
2022/11/13 13:52:51;;;;;;;7.40;6.70;;;13.30;99.90;;;;;;4959564;28;20216;-82
2022/11/13 13:55:42;;;;;;;7.40;6.60;;;13.20;99.90;;;;;;4976940;28;20260;-82
2022/11/13 13:58:14;;;;;;;5.40;4.90;;;13.00;99.90;;;;;;4959401;28;20263;-82
2022/11/13 14:00:39;;;;;;;5.93;5.33;;;12.90;99.90;;;;;;4959770;28;20196;-83
2022/11/13 14:03:17;;;;;;;6.67;5.50;;;12.90;99.90;;;;;;4959064;28;20223;-82
2022/11/13 14:05:42;;;;;;;7.17;5.70;;;12.70;99.90;;;;;;4977075;28;20231;-82
2022/11/13 14:08:16;;;;;;;7.93;6.20;;;12.70;99.90;;;;;;4976697;28;20176;-83
2022/11/13 14:10:42;;;;;;;7.30;6.47;;;12.50;99.90;;;;;;4959279;28;20172;-83
2022/11/13 14:13:12;;;;;;;6.97;6.20;;;12.50;99.90;;;;;;4976683;28;20267;-83
2022/11/13 14:15:38;;;;;;;6.60;5.90;;;12.30;99.90;;;;;;4959179;28;20211;-81
2022/11/13 14:18:05;;;;;;;6.57;5.97;;;12.20;99.90;;;;;;4988905;28;20204;-80
2022/11/13 14:20:48;;;;;;;7.03;6.33;;;12.00;99.90;;;;;;4980311;28;20199;-82
2022/11/13 14:23:23;;;;;;;7.27;6.03;;;11.90;99.90;;;;;;4958785;28;20180;-81
2022/11/13 14:25:49;;;;;;;6.93;6.23;;;11.90;99.90;;;;;;4976383;28;20258;-82
2022/11/13 14:28:17;;;;;;;6.63;5.77;;;11.90;99.90;;;;;;4958991;28;20184;-82
2022/11/13 14:30:43;;;;;;;6.43;5.70;;;11.80;99.90;;;;;;4958724;28;20271;-82
2022/11/13 14:33:13;;;;;;;6.57;5.90;;;11.80;99.90;;;;;;4959625;28;20332;-81
2022/11/13 14:35:39;;;;;;;6.43;5.53;;;11.80;99.90;;;;;;4976675;28;20188;-80
2022/11/13 14:38:17;;;;;;;6.73;6.03;;;11.80;99.90;;;;;;4985219;28;20200;-82
2022/11/13 14:40:46;;;;;;;6.43;5.77;;;11.70;99.90;;;;;;4984535;28;20183;-83
2022/11/13 14:43:24;;;;;;;7.30;5.90;;;11.70;99.90;;;;;;4995391;28;20183;-82
2022/11/13 14:45:56;;;;;;;8.00;6.13;;;11.60;99.90;;;;;;4996061;28;20183;-82
2022/11/13 14:48:23;;;;;;;6.30;5.70;;;11.40;99.90;;;;;;4956098;28;20180;-82
2022/11/13 14:50:53;;;;;;;6.33;5.50;;;11.40;99.90;;;;;;4975970;28;20271;-82
2022/11/13 14:53:30;;;;;;;5.40;4.90;;;11.30;99.90;;;;;;4975684;28;20184;-83
2022/11/13 14:56:01;;;;;;;5.60;4.57;;;11.10;99.90;;;;;;4976028;28;20191;-82
2022/11/13 14:58:32;;;;;;;5.83;4.60;;;11.00;99.90;;;;;;4976321;28;20204;-82
2022/11/13 15:01:10;;;;;;;6.43;4.70;;;10.90;99.90;;;;;;4975072;28;20176;-82
2022/11/13 15:03:36;;;;;;;4.57;4.17;;;10.90;99.90;;;;;;4976400;28;20176;-83
2022/11/13 15:06:01;;;;;;;6.27;4.43;;;10.80;99.90;;;;;;4975886;28;20545;-82
2022/11/13 15:08:27;;;;;;;5.33;3.97;;;10.70;99.90;;;;;;4958066;28;20188;-83
2022/11/13 15:10:55;;;;;;;4.40;4.00;;;10.70;99.90;;;;;;4957888;28;20184;-83
2022/11/13 15:13:21;;;;;;;4.33;3.93;;;10.60;99.90;;;;;;4975204;28;20250;-82
2022/11/13 15:15:47;;;;;;;4.30;3.90;;;10.50;99.90;;;;;;4958136;28;20211;-83
2022/11/13 15:18:17;;;;;;;5.17;3.87;;;10.40;99.90;;;;;;4973976;28;20208;-83
2022/11/13 15:20:43;;;;;;;4.23;3.83;;;10.30;99.90;;;;;;4958370;28;20187;-82
2022/11/13 15:23:12;;;;;;;4.57;3.83;;;10.30;99.90;;;;;;4956491;28;20677;-83
2022/11/13 15:25:37;;;;;;;6.13;3.80;;;10.10;99.90;;;;;;4972674;28;20188;-83
2022/11/13 15:28:03;;;;;;;4.93;4.40;;;10.10;99.90;;;;;;4979091;28;20188;-83
2022/11/13 15:30:29;;;;;;;4.70;4.10;;;10.10;99.90;;;;;;4959520;28;20184;-82
2022/11/13 15:32:56;;;;;;;10.23;7.60;;;10.00;99.90;;;;;;4949084;28;20203;-83
2022/11/13 15:35:21;;;;;;;4.47;3.83;;;10.00;99.90;;;;;;4963188;28;20592;-82
2022/11/13 15:37:47;;;;;;;4.83;4.30;;;9.80;99.90;;;;;;4974502;28;20208;-83
2022/11/13 15:40:13;;;;;;;5.97;4.07;;;9.60;99.90;;;;;;4957645;28;20173;-83
2022/11/13 15:42:39;;;;;;;4.80;4.20;;;9.50;99.90;;;;;;4962971;28;20196;-83
2022/11/13 15:45:05;;;;;;;4.40;3.93;;;9.40;99.90;;;;;;4982139;28;20651;-82
2022/11/13 15:47:34;;;;;;;4.97;4.07;;;9.30;99.90;;;;;;4974366;28;20187;-82
2022/11/13 15:50:00;;;;;;;6.50;5.30;;;9.20;99.90;;;;;;4942955;28;20183;-82
2022/11/13 15:52:37;;;;;;;4.57;4.03;;;9.20;99.90;;;;;;4957778;28;20220;-82
2022/11/13 15:55:11;;;;;;;5.00;4.30;;;9.10;99.90;;;;;;4975436;28;20164;-81
2022/11/13 15:57:37;;;;;;;5.90;4.70;;;9.10;99.90;;;;;;4975418;28;20198;-82
2022/11/13 16:00:03;;;;;;;5.60;4.60;;;9.10;99.90;;;;;;4957653;28;20176;-82
2022/11/13 16:02:30;;;;;;;4.43;3.93;;;9.10;99.90;;;;;;4974845;28;20192;-82
2022/11/13 16:04:56;;;;;;;14.83;10.17;;;8.90;99.90;;;;;;4958538;28;20176;-80
2022/11/13 16:07:26;;;;;;;9.27;5.77;;;8.90;99.90;;;;;;4959414;28;20222;-81
2022/11/13 16:09:52;;;;;;;6.50;4.50;;;9.40;99.90;;;;;;4959442;28;20606;-80
2022/11/13 16:12:17;;;;;;;7.80;4.27;;;9.90;99.90;;;;;;4948899;28;20232;-80
2022/11/13 16:14:43;;;;;;;6.00;4.30;;;10.40;99.90;;;;;;4956413;28;20243;-80
2022/11/13 16:17:19;;;;;;;4.87;3.90;;;10.60;99.90;;;;;;4976784;28;20183;-79
2022/11/13 16:19:47;;;;;;;4.93;3.77;;;11.50;99.90;;;;;;4958298;28;20190;-80
2022/11/13 16:22:30;;;;;;;6.23;4.00;;;12.70;99.90;;;;;;4975854;28;20208;-79
2022/11/13 16:24:56;;;;;;;4.80;3.63;;;13.10;99.90;;;;;;4974363;28;20172;-79
2022/11/13 16:27:28;;;;;;;3.83;3.43;;;13.50;99.90;;;;;;4957555;28;20186;-82
2022/11/13 16:29:54;;;;;;;5.57;3.83;;;13.00;99.90;;;;;;4974907;28;20643;-80
2022/11/13 16:32:20;;;;;;;5.20;4.43;;;11.90;99.90;;;;;;4975326;28;20199;-80
2022/11/13 16:34:46;;;;;;;5.17;4.30;;;12.10;99.90;;;;;;4957280;28;20184;-83
2022/11/13 16:37:20;;;;;;;5.40;4.90;;;10.80;99.90;;;;;;4956317;28;20173;-80
2022/11/13 16:39:46;;;;;;;4.63;3.70;;;9.90;99.90;;;;;;4955287;28;20180;-84
2022/11/13 16:42:13;;;;;;;3.83;3.50;;;9.30;99.90;;;;;;4976093;28;20194;-81
2022/11/13 16:44:39;;;;;;;4.40;3.70;;;8.80;99.90;;;;;;4957035;28;20180;-83
2022/11/13 16:47:06;;;;;;;4.33;3.57;;;8.40;99.90;;;;;;4974711;28;20180;-85
2022/11/13 16:49:31;;;;;;;4.90;3.57;;;8.10;99.90;;;;;;4956777;28;20174;-83
2022/11/13 16:51:57;;;;;;;5.70;3.93;;;7.90;99.90;;;;;;4956422;28;20295;-85
2022/11/13 16:54:23;;;;;;;4.00;3.60;;;7.80;99.90;;;;;;4973572;28;20200;-83
2022/11/13 16:56:48;;;;;;;5.40;3.97;;;7.50;99.90;;;;;;4956599;28;20181;-85
2022/11/13 16:59:14;;;;;;;4.73;3.80;;;7.30;99.90;;;;;;4956089;28;20226;-86
2022/11/13 17:01:39;;;;;;;4.00;3.53;;;7.10;99.90;;;;;;4956427;28;20195;-86
2022/11/13 17:04:05;;;;;;;5.00;4.13;;;7.10;99.90;;;;;;4956284;28;20174;-85
2022/11/13 17:06:33;;;;;;;5.13;4.00;;;7.10;99.90;;;;;;4973351;28;20665;-85
2022/11/13 17:09:00;;;;;;;4.17;3.27;;;7.10;99.90;;;;;;4973299;28;20180;-86
2022/11/13 17:11:29;;;;;;;5.17;3.60;;;7.00;99.90;;;;;;4956279;28;20571;-85
2022/11/13 17:13:57;;;;;;;4.47;3.80;;;6.90;99.90;;;;;;4956180;28;20276;-86
2022/11/13 17:16:25;;;;;;;5.80;4.10;;;6.80;99.90;;;;;;4956233;28;20625;-85
2022/11/13 17:18:54;;;;;;;8.30;6.47;;;6.70;99.90;;;;;;4956221;28;20197;-85
2022/11/13 17:21:22;;;;;;;5.83;4.33;;;6.60;99.90;;;;;;4973204;28;20190;-85
2022/11/13 17:23:56;;;;;;;7.17;3.80;;;6.60;99.90;;;;;;4955801;28;20623;-85
2022/11/13 17:26:22;;;;;;;4.27;3.57;;;6.60;99.90;;;;;;4977201;28;20165;-85
2022/11/13 17:28:48;;;;;;;3.90;3.50;;;6.50;99.90;;;;;;4959637;28;20271;-85
2022/11/13 17:31:13;;;;;;;4.03;3.50;;;6.30;99.90;;;;;;4959458;28;20295;-85
2022/11/13 17:33:39;;;;;;;4.43;3.60;;;6.20;99.90;;;;;;4976888;28;20180;-85
2022/11/13 17:36:05;;;;;;;6.30;3.60;;;6.20;99.90;;;;;;4959426;28;20556;-85
2022/11/13 17:38:31;;;;;;;5.53;3.70;;;6.30;99.90;;;;;;4959293;28;20196;-85
2022/11/13 17:41:07;;;;;;;5.63;4.10;;;6.20;99.90;;;;;;4959641;28;20220;-85
2022/11/13 17:43:36;;;;;;;4.17;3.77;;;6.10;99.90;;;;;;4976553;28;20180;-85
2022/11/13 17:46:03;;;;;;;4.43;3.53;;;6.20;99.90;;;;;;4959547;28;20215;-86
2022/11/13 17:48:32;;;;;;;4.33;3.73;;;6.00;99.90;;;;;;4976059;28;20670;-85
2022/11/13 17:51:00;;;;;;;3.73;3.30;;;5.90;99.90;;;;;;4991335;28;20351;-85
2022/11/13 17:53:26;;;;;;;4.03;3.63;;;5.80;99.90;;;;;;4976610;28;20204;-85
2022/11/13 17:55:56;;;;;;;5.00;4.50;;;5.70;99.90;;;;;;4991744;28;20254;-85
2022/11/13 17:58:23;;;;;;;4.93;4.43;;;5.60;99.90;;;;;;4991544;28;20235;-85
2022/11/13 18:00:49;;;;;;;4.30;3.80;;;5.60;99.90;;;;;;4976532;28;20215;-83
2022/11/13 18:03:15;;;;;;;5.40;3.83;;;5.70;99.90;;;;;;4976380;28;20184;-85
2022/11/13 18:05:40;;;;;;;4.77;3.70;;;5.70;99.90;;;;;;4991256;28;20183;-85
2022/11/13 18:08:06;;;;;;;5.43;3.97;;;5.70;99.90;;;;;;4976380;28;20176;-85
2022/11/13 18:10:32;;;;;;;4.30;3.80;;;5.70;99.90;;;;;;4991383;28;20228;-85
2022/11/13 18:12:58;;;;;;;5.17;3.90;;;5.50;99.90;;;;;;4990949;28;20204;-85
2022/11/13 18:15:24;;;;;;;4.93;3.90;;;5.60;99.90;;;;;;4991131;28;20424;-85
2022/11/13 18:17:50;;;;;;;4.87;4.10;;;5.60;99.90;;;;;;4991222;28;20239;-86
2022/11/13 18:20:15;;;;;;;5.10;4.10;;;5.60;99.90;;;;;;4990900;28;20180;-86
2022/11/13 18:22:41;;;;;;;4.60;3.90;;;5.50;99.90;;;;;;4976139;28;20191;-85
2022/11/13 18:25:07;;;;;;;4.67;4.20;;;5.50;99.90;;;;;;4991158;28;20213;-84
2022/11/13 18:27:33;;;;;;;4.63;4.00;;;5.50;99.90;;;;;;4991281;28;20179;-85
2022/11/13 18:29:58;;;;;;;5.07;4.37;;;5.40;99.90;;;;;;4981487;28;20563;-84
2022/11/13 18:32:24;;;;;;;5.93;4.77;;;5.40;99.90;;;;;;4972232;28;20215;-80
2022/11/13 18:34:50;;;;;;;4.73;4.27;;;5.40;99.90;;;;;;4958503;28;20206;-84
2022/11/13 18:37:15;;;;;;;6.47;5.73;;;5.40;99.90;;;;;;4958217;28;20562;-84
2022/11/13 18:39:41;;;;;;;6.10;4.83;;;5.30;99.90;;;;;;4975871;28;20184;-85
2022/11/13 18:42:06;;;;;;;6.10;5.30;;;5.30;99.90;;;;;;4958754;28;20198;-83
2022/11/13 18:44:32;;;;;;;6.33;5.43;;;5.20;99.90;;;;;;4958400;28;20610;-84
2022/11/13 18:46:57;;;;;;;6.93;5.30;;;5.10;99.90;;;;;;4975993;28;20193;-84
2022/11/13 18:49:23;;;;;;;5.93;5.33;;;4.90;99.90;;;;;;4974642;28;20188;-84
2022/11/13 18:51:49;;;;;;;4.70;4.20;;;4.80;99.90;;;;;;5006875;22;20233;-79
2022/11/13 18:54:14;;;;;;;5.97;5.17;;;4.80;99.90;;;;;;5017204;28;20211;-82
2022/11/13 18:56:40;;;;;;;6.87;5.40;;;4.70;99.90;;;;;;5019597;28;20557;-82
2022/11/13 18:59:06;;;;;;;5.90;4.30;;;4.70;99.90;;;;;;5013437;28;20195;-84
2022/11/13 19:01:33;;;;;;;5.67;4.83;;;4.60;99.90;;;;;;5014072;28;20176;-85
2022/11/13 19:04:01;;;;;;;6.90;5.17;;;4.50;99.90;;;;;;5006752;28;20169;-84
2022/11/13 19:06:27;;;;;;;5.90;4.80;;;4.60;99.90;;;;;;5015975;28;20176;-82
2022/11/13 19:08:55;;;;;;;5.70;4.80;;;4.60;99.90;;;;;;5013836;28;20185;-83
2022/11/13 19:11:21;;;;;;;5.90;4.80;;;4.60;99.90;;;;;;5013767;28;20262;-82
2022/11/13 19:13:48;;;;;;;5.83;4.63;;;4.60;99.90;;;;;;5012879;28;20268;-83
2022/11/13 19:16:16;;;;;;;7.90;5.10;;;4.60;99.90;;;;;;5014332;28;20183;-84
2022/11/13 19:18:48;;;;;;;5.30;4.80;;;4.70;99.90;;;;;;5012819;28;20198;-82
2022/11/13 19:21:15;;;;;;;7.30;5.03;;;4.50;99.90;;;;;;5013041;28;20176;-83
2022/11/13 19:23:40;;;;;;;6.43;5.30;;;4.40;99.90;;;;;;5014058;28;20219;-83
2022/11/13 19:26:07;;;;;;;6.87;5.23;;;4.40;99.90;;;;;;5014576;28;20195;-85
2022/11/13 19:28:34;;;;;;;7.93;5.73;;;4.40;99.90;;;;;;5014779;28;20179;-81
2022/11/13 19:31:05;;;;;;;7.00;5.13;;;4.40;99.90;;;;;;5013963;28;20183;-83
2022/11/13 19:33:30;;;;;;;8.83;7.30;;;4.40;99.90;;;;;;5013021;28;20210;-83
2022/11/13 19:35:56;;;;;;;8.13;6.13;;;4.40;99.90;;;;;;5013809;28;20634;-82
2022/11/13 19:38:22;;;;;;;7.20;6.17;;;4.50;99.90;;;;;;5012773;28;20261;-83
2022/11/13 19:40:50;;;;;;;7.03;5.80;;;4.50;99.90;;;;;;5012864;28;20180;-82
2022/11/13 19:43:16;;;;;;;6.43;5.30;;;4.50;99.90;;;;;;5014090;28;20199;-83
2022/11/13 19:45:42;;;;;;;6.97;5.93;;;4.40;99.90;;;;;;5012761;28;20182;-82
2022/11/13 19:48:09;;;;;;;9.07;5.97;;;4.50;99.90;;;;;;5013785;28;20177;-83
2022/11/13 19:50:35;;;;;;;7.93;5.50;;;4.30;99.90;;;;;;5013871;28;20176;-84
2022/11/13 19:53:01;;;;;;;8.20;6.17;;;4.30;99.90;;;;;;5013731;28;20208;-81
2022/11/13 19:55:27;;;;;;;7.20;5.70;;;4.30;99.90;;;;;;5014103;28;20209;-82
2022/11/13 19:57:52;;;;;;;8.53;6.63;;;4.40;99.90;;;;;;5013517;28;20210;-83
2022/11/13 20:00:18;;;;;;;8.53;6.37;;;4.50;99.90;;;;;;5012534;28;20180;-83
2022/11/13 20:02:44;;;;;;;10.73;6.27;;;4.50;99.90;;;;;;5012328;28;20201;-83
2022/11/13 20:05:09;;;;;;;7.90;6.20;;;4.40;99.90;;;;;;5012230;28;20167;-83
2022/11/13 20:07:35;;;;;;;7.53;5.83;;;4.40;99.90;;;;;;5012991;28;20179;-82
2022/11/13 20:10:02;;;;;;;5.97;5.00;;;4.30;99.90;;;;;;5012518;28;20179;-82
2022/11/13 20:12:28;;;;;;;7.83;5.90;;;4.10;99.90;;;;;;5013446;28;20219;-83
2022/11/13 20:14:54;;;;;;;7.40;6.00;;;4.10;99.90;;;;;;5013226;28;20671;-82
2022/11/13 20:17:20;;;;;;;7.37;5.60;;;4.10;99.90;;;;;;5013451;28;20266;-84
2022/11/13 20:19:46;;;;;;;6.73;5.20;;;4.00;99.90;;;;;;5013317;28;20175;-82
2022/11/13 20:22:11;;;;;;;6.43;4.83;;;4.00;99.90;;;;;;5012890;28;20285;-82
2022/11/13 20:24:37;;;;;;;8.50;5.17;;;4.00;99.90;;;;;;5012506;28;20171;-85
2022/11/13 20:27:03;;;;;;;6.80;5.53;;;3.80;99.90;;;;;;5011333;28;20347;-86
2022/11/13 20:29:31;;;;;;;6.93;4.90;;;3.80;99.90;;;;;;5013206;28;20178;-82
2022/11/13 20:31:57;;;;;;;8.50;5.90;;;3.80;99.90;;;;;;5012578;28;20198;-82
2022/11/13 20:34:23;;;;;;;8.47;5.67;;;3.80;99.90;;;;;;5012774;28;20184;-82
2022/11/13 20:36:49;;;;;;;13.10;8.80;;;3.70;99.90;;;;;;5012899;28;20182;-84
2022/11/13 20:39:14;;;;;;;10.37;7.67;;;3.70;99.90;;;;;;5011537;28;20257;-82
2022/11/13 20:41:40;;;;;;;14.90;11.03;;;3.80;99.90;;;;;;5011381;28;20191;-82
2022/11/13 20:44:06;;;;;;;10.03;7.87;;;3.70;99.90;;;;;;5011361;28;20178;-82
2022/11/13 20:46:31;;;;;;;7.37;6.17;;;3.60;99.90;;;;;;5011699;28;20179;-82
2022/11/13 20:48:57;;;;;;;8.23;5.50;;;3.70;99.90;;;;;;5013226;28;20190;-82
2022/11/13 20:51:27;;;;;;;9.00;6.33;;;3.60;99.90;;;;;;5011916;28;20261;-82
2022/11/13 20:53:53;;;;;;;8.17;6.07;;;3.70;99.90;;;;;;5011663;28;20198;-82
2022/11/13 20:56:21;;;;;;;7.17;5.13;;;3.70;99.90;;;;;;5012664;28;20179;-82
2022/11/13 20:58:47;;;;;;;7.17;5.73;;;3.60;99.90;;;;;;5011778;28;20290;-82
2022/11/13 21:01:21;;;;;;;7.30;5.93;;;3.40;99.90;;;;;;5015298;28;20286;-82
2022/11/13 21:03:47;;;;;;;8.00;5.97;;;3.40;99.90;;;;;;5015536;28;20181;-82
2022/11/13 21:06:15;;;;;;;5.97;5.23;;;3.30;99.90;;;;;;5016823;28;20175;-82
2022/11/13 21:08:41;;;;;;;6.80;5.13;;;3.30;99.90;;;;;;5016447;28;20181;-82
2022/11/13 21:11:12;;;;;;;8.17;6.07;;;3.20;99.90;;;;;;5015101;28;20183;-82
2022/11/13 21:13:37;;;;;;;8.17;6.37;;;3.10;99.90;;;;;;5015251;28;20573;-81
2022/11/13 21:16:05;;;;;;;8.83;6.80;;;3.10;99.90;;;;;;5015215;28;20178;-82
2022/11/13 21:18:30;;;;;;;8.33;6.10;;;3.10;99.90;;;;;;5015836;28;20207;-82
2022/11/13 21:21:06;;;;;;;9.93;6.97;;;3.10;99.90;;;;;;5015966;28;20186;-82
2022/11/13 21:23:31;;;;;;;6.13;5.00;;;3.00;99.90;;;;;;5014656;28;20201;-81
2022/11/13 21:25:59;;;;;;;6.83;5.33;;;2.90;99.90;;;;;;5015138;28;20182;-82
2022/11/13 21:28:24;;;;;;;9.47;7.00;;;2.90;99.90;;;;;;5015068;28;20178;-85
2022/11/13 21:30:50;;;;;;;8.53;7.40;;;2.90;99.90;;;;;;5015605;28;20178;-85
2022/11/13 21:33:15;;;;;;;8.57;6.83;;;3.00;99.90;;;;;;5013363;28;20233;-84
2022/11/13 21:35:41;;;;;;;7.83;6.17;;;2.90;99.90;;;;;;5016056;28;20260;-84
2022/11/13 21:38:07;;;;;;;8.60;6.37;;;2.90;99.90;;;;;;5014944;28;20199;-82
2022/11/13 21:40:32;;;;;;;9.30;7.00;;;2.90;99.90;;;;;;5016496;28;20179;-82
2022/11/13 21:42:58;;;;;;;9.50;7.07;;;3.00;99.90;;;;;;5015524;28;20222;-82
2022/11/13 21:45:23;;;;;;;8.60;6.43;;;3.00;99.90;;;;;;5016379;28;20177;-84
2022/11/13 21:47:49;;;;;;;8.10;6.57;;;2.80;99.90;;;;;;5014332;28;20178;-84
2022/11/13 21:50:14;;;;;;;9.97;7.10;;;2.90;99.90;;;;;;5016214;28;20185;-84
2022/11/13 21:52:40;;;;;;;8.30;6.83;;;2.90;99.90;;;;;;5013981;28;20220;-84
2022/11/13 21:55:07;;;;;;;7.97;6.23;;;2.90;99.90;;;;;;5013969;28;20229;-84
2022/11/13 21:57:33;;;;;;;8.63;7.00;;;2.90;99.90;;;;;;5015578;28;20558;-84
2022/11/13 21:59:58;;;;;;;8.90;6.97;;;2.80;99.90;;;;;;5014212;28;20175;-86
2022/11/13 22:02:24;;;;;;;8.03;6.70;;;2.80;99.90;;;;;;5015647;28;20217;-84
2022/11/13 22:04:49;;;;;;;9.87;6.90;;;2.80;99.90;;;;;;5015621;28;20176;-83
2022/11/13 22:07:15;;;;;;;8.90;6.93;;;2.80;99.90;;;;;;5013926;28;20205;-84
2022/11/13 22:09:41;;;;;;;9.50;7.00;;;2.80;99.90;;;;;;5014012;28;20225;-86
2022/11/13 22:12:08;;;;;;;8.67;7.33;;;2.80;99.90;;;;;;5014698;28;20207;-84
2022/11/13 22:14:34;;;;;;;11.07;8.00;;;2.80;99.90;;;;;;5013912;28;20660;-84
2022/11/13 22:16:59;;;;;;;9.63;7.27;;;2.80;99.90;;;;;;5015126;28;20189;-84
2022/11/13 22:19:25;;;;;;;9.57;7.10;;;2.80;99.90;;;;;;5013846;28;20206;-85
2022/11/13 22:21:51;;;;;;;9.83;7.67;;;2.80;99.90;;;;;;5013715;28;20228;-84
2022/11/13 22:24:18;;;;;;;11.30;8.10;;;2.80;99.90;;;;;;5014600;28;20282;-84
2022/11/13 22:26:44;;;;;;;10.17;8.10;;;2.50;99.90;;;;;;5014893;28;20197;-84
2022/11/13 22:29:10;;;;;;;9.30;7.33;;;2.40;99.90;;;;;;5013360;28;20186;-85
2022/11/13 22:31:36;;;;;;;11.00;8.33;;;2.50;99.90;;;;;;5014099;28;20185;-84
2022/11/13 22:34:03;;;;;;;11.83;8.17;;;2.50;99.90;;;;;;5013799;28;20183;-84
2022/11/13 22:36:36;;;;;;;9.37;7.40;;;2.60;99.90;;;;;;5014834;28;20251;-84
2022/11/13 22:39:02;;;;;;;11.20;7.47;;;2.60;99.90;;;;;;5013637;28;20221;-84
2022/11/13 22:41:31;;;;;;;10.93;7.90;;;2.50;99.90;;;;;;5013396;28;20204;-86
2022/11/13 22:43:58;;;;;;;12.93;9.17;;;2.50;99.90;;;;;;5013522;28;20182;-85
2022/11/13 22:46:27;;;;;;;10.17;7.23;;;2.50;99.90;;;;;;5014402;28;20175;-83
2022/11/13 22:48:54;;;;;;;9.43;6.87;;;2.40;99.90;;;;;;5014485;28;20187;-84
2022/11/13 22:51:31;;;;;;;10.00;7.50;;;2.40;99.90;;;;;;5013541;28;20644;-84
2022/11/13 22:54:06;;;;;;;10.93;7.77;;;2.30;99.90;;;;;;5013499;28;20297;-84
2022/11/13 22:56:33;;;;;;;16.73;9.13;;;2.40;99.90;;;;;;5013166;28;20231;-84
2022/11/13 22:59:00;;;;;;;11.67;8.10;;;2.30;99.90;;;;;;5014280;28;20206;-84
2022/11/13 23:01:28;;;;;;;19.23;9.33;;;2.40;99.90;;;;;;5012808;28;20599;-84
2022/11/13 23:03:55;;;;;;;25.47;10.23;;;2.30;99.90;;;;;;5012996;28;20177;-84
2022/11/13 23:06:29;;;;;;;30.03;11.53;;;2.40;99.90;;;;;;5014302;28;20182;-84
2022/11/13 23:08:55;;;;;;;52.13;12.43;;;2.40;99.90;;;;;;5014087;28;20181;-84
2022/11/13 23:11:38;;;;;;;40.30;11.47;;;2.40;99.90;;;;;;5012824;28;20185;-84
2022/11/13 23:14:06;;;;;;;48.80;11.17;;;2.40;99.90;;;;;;5012523;28;20196;-84
2022/11/13 23:16:33;;;;;;;42.83;11.73;;;2.30;99.90;;;;;;5013214;28;20201;-84
2022/11/13 23:19:00;;;;;;;28.93;10.10;;;2.30;99.90;;;;;;5014059;28;20224;-84
2022/11/13 23:21:26;;;;;;;19.97;10.50;;;2.20;99.90;;;;;;5013781;28;20710;-83
2022/11/13 23:23:53;;;;;;;17.77;9.80;;;2.10;99.90;;;;;;5012242;28;20177;-85
2022/11/13 23:26:19;;;;;;;15.17;9.43;;;2.00;99.90;;;;;;5012464;28;20243;-84
2022/11/13 23:28:45;;;;;;;13.70;9.77;;;2.00;99.90;;;;;;5012380;28;20188;-84
2022/11/13 23:31:10;;;;;;;13.87;9.57;;;1.90;99.90;;;;;;5013838;28;20184;-84
2022/11/13 23:33:37;;;;;;;12.13;9.50;;;1.90;99.90;;;;;;5013405;28;20609;-86
2022/11/13 23:36:04;;;;;;;13.67;9.97;;;2.00;99.90;;;;;;5012266;28;20693;-84
2022/11/13 23:38:30;;;;;;;11.33;8.43;;;2.10;99.90;;;;;;5012390;28;20213;-84
2022/11/13 23:40:57;;;;;;;11.80;8.90;;;2.10;99.90;;;;;;5012318;28;20203;-84
2022/11/13 23:43:24;;;;;;;12.37;8.63;;;2.20;99.90;;;;;;5011952;28;20201;-84
2022/11/13 23:45:50;;;;;;;9.97;8.47;;;2.20;99.90;;;;;;5013558;28;20170;-85
2022/11/13 23:48:16;;;;;;;12.07;8.53;;;2.10;99.90;;;;;;5012197;28;20181;-84
2022/11/13 23:50:42;;;;;;;14.57;9.03;;;2.10;99.90;;;;;;5011410;28;20181;-84
2022/11/13 23:53:09;;;;;;;14.13;9.73;;;2.10;99.90;;;;;;5012899;28;20220;-84
2022/11/13 23:55:37;;;;;;;12.17;9.03;;;2.10;99.90;;;;;;5012113;28;20178;-84
2022/11/13 23:58:04;;;;;;;12.73;8.83;;;2.10;99.90;;;;;;5011867;28;20623;-84
